Time;durP1;ratioP1;P1;durP2;ratioP2;P2;SDS_P1;SDS_P2;PMS_P1;PMS_P2;Temp;Humidity;BMP_temperature;BMP_pressure;BME280_temperature;BME280_humidity;BME280_pressure;Samples;Min_cycle;Max_cycle;Signal;HPM_P1;HPM_P2
2023/01/09 00:00:20;;;;;;;3.45;1.20;;;7.50;99.90;;;;;;5071062;28;20057;-65
2023/01/09 00:02:46;;;;;;;2.10;1.00;;;7.50;99.90;;;;;;5070824;28;20098;-66
2023/01/09 00:05:15;;;;;;;3.85;1.10;;;7.50;99.90;;;;;;5053383;28;20044;-65
2023/01/09 00:07:40;;;;;;;6.38;1.08;;;7.50;99.90;;;;;;5069138;28;20387;-68
2023/01/09 00:10:07;;;;;;;3.45;1.05;;;7.50;99.90;;;;;;5070910;28;20522;-67
2023/01/09 00:12:33;;;;;;;3.47;1.20;;;7.50;99.90;;;;;;5070768;28;20044;-66
2023/01/09 00:14:59;;;;;;;3.10;1.00;;;7.40;99.90;;;;;;5050336;28;20056;-67
2023/01/09 00:17:25;;;;;;;3.05;1.02;;;7.40;99.90;;;;;;5068686;28;20097;-66
2023/01/09 00:19:51;;;;;;;4.47;1.30;;;7.40;99.90;;;;;;5071100;28;20078;-67
2023/01/09 00:22:16;;;;;;;3.90;1.20;;;7.30;99.90;;;;;;5065165;28;20143;-67
2023/01/09 00:24:42;;;;;;;2.30;1.10;;;7.30;99.90;;;;;;5069230;28;20395;-69
2023/01/09 00:27:07;;;;;;;3.25;1.10;;;7.30;99.90;;;;;;5068961;28;20049;-66
2023/01/09 00:29:33;;;;;;;3.15;1.00;;;7.30;99.90;;;;;;5070533;28;20048;-67
2023/01/09 00:31:59;;;;;;;3.90;1.00;;;7.20;99.90;;;;;;5070624;28;20085;-65
2023/01/09 00:34:25;;;;;;;5.90;1.13;;;7.20;99.90;;;;;;5070095;28;20040;-65
2023/01/09 00:36:55;;;;;;;1.48;0.73;;;7.20;99.90;;;;;;5068356;28;20040;-65
2023/01/09 00:39:23;;;;;;;1.50;0.50;;;7.10;99.90;;;;;;5068602;28;20398;-65
2023/01/09 00:41:53;;;;;;;1.60;0.70;;;7.10;99.90;;;;;;5070543;28;20056;-68
2023/01/09 00:44:27;;;;;;;2.75;1.00;;;7.10;99.90;;;;;;5070302;28;20032;-66
2023/01/09 00:47:04;;;;;;;2.92;0.75;;;7.00;99.90;;;;;;5069936;28;20040;-67
2023/01/09 00:49:34;;;;;;;1.52;0.50;;;7.00;99.90;;;;;;5070130;28;20036;-66
2023/01/09 00:52:00;;;;;;;1.75;0.60;;;7.00;99.90;;;;;;5070557;28;20147;-68
2023/01/09 00:54:27;;;;;;;1.60;0.60;;;7.00;99.90;;;;;;5070524;28;20040;-64
2023/01/09 00:56:54;;;;;;;1.08;0.65;;;6.90;99.90;;;;;;5069133;28;20055;-70
2023/01/09 00:59:21;;;;;;;3.13;0.70;;;6.90;99.90;;;;;;5068660;28;20056;-67
2023/01/09 01:01:46;;;;;;;2.67;0.50;;;6.90;99.90;;;;;;5069955;28;20036;-67
2023/01/09 01:09:42;;;;;;;1.27;0.68;;;6.90;99.90;;;;;;5031717;28;20164;-68
2023/01/09 01:12:08;;;;;;;1.63;0.60;;;6.90;99.90;;;;;;5032037;28;20127;-65
2023/01/09 01:14:35;;;;;;;1.85;0.68;;;6.80;99.90;;;;;;5032121;28;20037;-68
2023/01/09 01:17:01;;;;;;;3.00;0.80;;;6.80;99.90;;;;;;5048651;28;20052;-64
2023/01/09 01:19:27;;;;;;;2.25;0.93;;;6.80;99.90;;;;;;5031378;28;20041;-67
2023/01/09 01:21:52;;;;;;;1.85;0.80;;;6.80;99.90;;;;;;5032211;28;20451;-69
2023/01/09 01:24:18;;;;;;;2.03;0.90;;;6.80;99.90;;;;;;5031991;28;20059;-65
2023/01/09 01:26:47;;;;;;;3.08;1.00;;;6.80;99.90;;;;;;5029392;28;20506;-68
2023/01/09 01:29:13;;;;;;;2.55;0.90;;;6.70;99.90;;;;;;5046742;28;20045;-65
2023/01/09 01:31:39;;;;;;;3.88;0.95;;;6.70;99.90;;;;;;5031635;28;20103;-68
2023/01/09 01:34:05;;;;;;;3.17;1.05;;;6.70;99.90;;;;;;5031637;28;20102;-65
2023/01/09 01:36:30;;;;;;;1.95;0.90;;;6.70;99.90;;;;;;5031470;28;20049;-67
2023/01/09 01:38:56;;;;;;;2.38;0.95;;;6.70;99.90;;;;;;5030932;28;20045;-66
2023/01/09 01:41:28;;;;;;;4.80;1.10;;;6.70;99.90;;;;;;5031687;28;20032;-67
2023/01/09 01:43:59;;;;;;;1.63;1.05;;;6.70;99.90;;;;;;5046055;28;20259;-67
2023/01/09 01:46:26;;;;;;;2.58;1.00;;;6.70;99.90;;;;;;5069078;28;20048;-67
2023/01/09 01:48:58;;;;;;;2.47;0.93;;;6.70;99.90;;;;;;5069158;28;20040;-68
2023/01/09 01:51:27;;;;;;;2.50;1.10;;;6.70;99.90;;;;;;5068315;28;20124;-68
2023/01/09 01:53:57;;;;;;;2.40;1.10;;;6.60;99.90;;;;;;5067715;28;20051;-69
2023/01/09 01:56:35;;;;;;;2.22;1.10;;;6.60;99.90;;;;;;5066046;28;20080;-67
2023/01/09 01:59:34;;;;;;;2.90;1.10;;;6.60;99.90;;;;;;5068642;28;20040;-68
2023/01/09 02:02:01;;;;;;;1.85;1.02;;;6.50;99.90;;;;;;5054981;28;20056;-67
2023/01/09 02:04:29;;;;;;;3.53;1.23;;;6.50;99.90;;;;;;5068949;28;20040;-67
2023/01/09 02:06:56;;;;;;;3.17;1.25;;;6.50;99.90;;;;;;5068789;28;20074;-65
2023/01/09 02:09:24;;;;;;;6.03;1.60;;;6.40;99.90;;;;;;5068828;28;20032;-66
2023/01/09 02:11:51;;;;;;;4.80;1.52;;;6.40;99.90;;;;;;5067457;28;20439;-68
2023/01/09 02:14:21;;;;;;;5.57;1.58;;;6.40;99.90;;;;;;5068611;28;20131;-66
2023/01/09 02:17:08;;;;;;;3.38;1.30;;;6.40;99.90;;;;;;5068734;28;20040;-67
2023/01/09 02:19:40;;;;;;;7.03;1.45;;;6.40;99.90;;;;;;5066999;28;20048;-68
2023/01/09 02:22:28;;;;;;;4.13;1.37;;;6.40;99.90;;;;;;5067821;28;20063;-67
2023/01/09 02:25:27;;;;;;;4.10;1.08;;;6.40;99.90;;;;;;5067891;28;20070;-67
2023/01/09 02:28:44;;;;;;;4.82;1.45;;;6.30;99.90;;;;;;5068536;28;20040;-67
2023/01/09 02:31:17;;;;;;;5.40;1.42;;;6.30;99.90;;;;;;5068737;28;20044;-65
2023/01/09 02:33:48;;;;;;;4.50;1.38;;;6.30;99.90;;;;;;5047522;28;20718;-65
2023/01/09 02:36:23;;;;;;;5.82;1.40;;;6.30;99.90;;;;;;5066099;28;20482;-66
2023/01/09 02:38:54;;;;;;;4.10;1.52;;;6.20;99.90;;;;;;5067755;28;20046;-66
2023/01/09 02:41:46;;;;;;;4.07;1.48;;;6.20;99.90;;;;;;5071355;28;20041;-66
2023/01/09 02:44:23;;;;;;;6.45;1.65;;;6.10;99.90;;;;;;5065852;28;20049;-67
2023/01/09 02:47:06;;;;;;;3.78;1.42;;;6.00;99.90;;;;;;5085989;28;20410;-65
2023/01/09 02:49:38;;;;;;;5.80;1.73;;;6.00;99.90;;;;;;5072633;28;20086;-65
2023/01/09 02:52:10;;;;;;;3.03;1.60;;;6.00;99.90;;;;;;5072615;28;20208;-66
2023/01/09 02:54:38;;;;;;;6.87;2.10;;;5.90;99.90;;;;;;5071358;28;20047;-65
2023/01/09 02:57:36;;;;;;;3.65;1.90;;;5.90;99.90;;;;;;5070305;28;20048;-64
2023/01/09 03:00:24;;;;;;;5.45;1.90;;;5.90;99.90;;;;;;5049094;28;20052;-66
2023/01/09 03:03:19;;;;;;;3.40;1.70;;;5.80;99.90;;;;;;5072418;28;20079;-68
2023/01/09 03:05:50;;;;;;;5.07;1.77;;;5.80;99.90;;;;;;5071144;28;20115;-65
2023/01/09 03:08:18;;;;;;;5.13;1.88;;;5.70;99.90;;;;;;5072164;28;20045;-66
2023/01/09 03:11:05;;;;;;;4.55;1.90;;;5.70;99.90;;;;;;5072261;28;20399;-69
2023/01/09 03:14:00;;;;;;;3.97;2.20;;;5.70;99.90;;;;;;5071956;28;20036;-69
2023/01/09 03:16:34;;;;;;;7.40;2.35;;;5.70;99.90;;;;;;5072647;28;20036;-65
2023/01/09 03:19:01;;;;;;;2.78;1.80;;;5.60;99.90;;;;;;5071410;28;20487;-66
2023/01/09 03:21:27;;;;;;;3.90;1.92;;;5.60;99.90;;;;;;5072216;28;20888;-66
2023/01/09 03:23:59;;;;;;;4.43;1.85;;;5.60;99.90;;;;;;5071604;28;20072;-68
2023/01/09 03:26:25;;;;;;;4.30;1.90;;;5.60;99.90;;;;;;5070353;28;20435;-69
2023/01/09 03:28:51;;;;;;;3.90;1.75;;;5.50;99.90;;;;;;5071750;28;20141;-65
2023/01/09 03:31:17;;;;;;;5.05;2.08;;;5.50;99.90;;;;;;5071415;28;20036;-65
2023/01/09 03:33:43;;;;;;;5.35;2.20;;;5.40;99.90;;;;;;5071911;28;20491;-68
2023/01/09 03:36:11;;;;;;;6.75;2.20;;;5.40;99.90;;;;;;5070070;28;20147;-68
2023/01/09 03:38:37;;;;;;;3.85;2.10;;;5.40;99.90;;;;;;5088396;28;20494;-66
2023/01/09 03:41:03;;;;;;;5.47;2.80;;;5.40;99.90;;;;;;5071639;28;20039;-68
2023/01/09 03:43:29;;;;;;;6.25;2.47;;;5.40;99.90;;;;;;5071658;28;20044;-68
2023/01/09 03:45:55;;;;;;;4.85;2.28;;;5.30;99.90;;;;;;5071147;28;20033;-68
2023/01/09 03:48:21;;;;;;;7.53;2.22;;;5.30;99.90;;;;;;5069293;28;20041;-65
2023/01/09 03:50:52;;;;;;;6.78;2.38;;;5.30;99.90;;;;;;5070966;28;20040;-66
2023/01/09 03:53:18;;;;;;;7.72;2.60;;;5.30;99.90;;;;;;5072592;28;20056;-67
2023/01/09 03:55:50;;;;;;;6.13;2.67;;;5.30;99.90;;;;;;5071203;28;20085;-67
2023/01/09 03:58:16;;;;;;;5.78;2.72;;;5.20;99.90;;;;;;5069646;28;20045;-68
2023/01/09 04:00:47;;;;;;;13.23;3.50;;;5.20;99.90;;;;;;5052090;28;20105;-69
2023/01/09 04:03:14;;;;;;;6.32;3.45;;;5.20;99.90;;;;;;5069256;28;20047;-66
2023/01/09 04:05:40;;;;;;;4.82;3.13;;;5.10;99.90;;;;;;5071086;28;20080;-65
2023/01/09 04:08:06;;;;;;;6.40;3.20;;;5.10;99.90;;;;;;5068862;28;20078;-68
2023/01/09 04:10:32;;;;;;;4.30;3.10;;;5.10;99.90;;;;;;5068150;28;20438;-66
2023/01/09 04:12:58;;;;;;;6.90;3.55;;;5.10;99.90;;;;;;5069507;28;20372;-67
2023/01/09 04:15:24;;;;;;;6.30;3.85;;;5.10;99.90;;;;;;5070956;28;20072;-67
2023/01/09 04:17:49;;;;;;;7.22;4.20;;;5.10;99.90;;;;;;5067911;28;20419;-68
2023/01/09 04:20:15;;;;;;;7.32;3.58;;;5.10;99.90;;;;;;5069074;28;20041;-67
2023/01/09 04:22:41;;;;;;;6.60;3.60;;;5.00;99.90;;;;;;5069615;28;20036;-66
2023/01/09 04:25:07;;;;;;;8.60;4.50;;;5.00;99.90;;;;;;5070706;28;20119;-67
2023/01/09 04:27:33;;;;;;;7.80;4.93;;;5.00;99.90;;;;;;5070812;28;20096;-68
2023/01/09 04:29:59;;;;;;;6.50;4.90;;;5.00;99.90;;;;;;5053577;28;20558;-66
2023/01/09 04:32:26;;;;;;;10.43;5.28;;;5.00;99.90;;;;;;5069653;28;20051;-65
2023/01/09 04:34:53;;;;;;;7.65;5.47;;;5.00;99.90;;;;;;5070639;28;20055;-67
2023/01/09 04:37:19;;;;;;;8.65;5.40;;;5.00;99.90;;;;;;5070368;28;20058;-67
2023/01/09 04:39:44;;;;;;;8.15;5.72;;;5.00;99.90;;;;;;5054275;28;20056;-67
2023/01/09 04:42:11;;;;;;;9.40;5.88;;;5.00;99.90;;;;;;5069070;28;20033;-67
2023/01/09 04:44:36;;;;;;;10.50;6.05;;;4.90;99.90;;;;;;5070544;28;21946;-70
2023/01/09 04:47:02;;;;;;;7.95;6.03;;;5.00;99.90;;;;;;5070633;28;20127;-66
2023/01/09 04:49:28;;;;;;;10.38;6.65;;;5.00;99.90;;;;;;5070013;28;20048;-65
2023/01/09 04:51:54;;;;;;;10.57;7.20;;;4.90;99.90;;;;;;5069597;28;20040;-65
2023/01/09 04:54:20;;;;;;;12.05;8.35;;;4.90;99.90;;;;;;5070331;28;20119;-66
2023/01/09 04:56:46;;;;;;;11.38;7.30;;;4.90;99.90;;;;;;5071540;28;20032;-67
2023/01/09 04:59:12;;;;;;;9.52;7.40;;;4.90;99.90;;;;;;5069996;28;20135;-65
2023/01/09 05:01:37;;;;;;;12.95;8.25;;;4.90;99.90;;;;;;5067544;28;20040;-66
2023/01/09 05:04:04;;;;;;;13.10;8.65;;;4.90;99.90;;;;;;5070360;28;20079;-69
2023/01/09 05:06:30;;;;;;;12.32;8.55;;;4.80;99.90;;;;;;5053014;28;20060;-64
2023/01/09 05:08:56;;;;;;;11.57;8.60;;;4.80;99.90;;;;;;5070229;28;20094;-66
2023/01/09 05:11:22;;;;;;;10.90;9.00;;;4.80;99.90;;;;;;5051508;28;20056;-67
2023/01/09 05:13:48;;;;;;;13.20;8.75;;;4.80;99.90;;;;;;5067887;28;20119;-68
2023/01/09 05:16:13;;;;;;;12.20;9.07;;;4.70;99.90;;;;;;5069831;28;20040;-66
2023/01/09 05:18:39;;;;;;;11.43;9.00;;;4.70;99.90;;;;;;5067094;28;20037;-67
2023/01/09 05:21:05;;;;;;;12.27;9.32;;;4.70;99.90;;;;;;5069453;28;20082;-68
2023/01/09 05:23:30;;;;;;;14.27;9.60;;;4.70;99.90;;;;;;5068261;28;20117;-67
2023/01/09 05:25:56;;;;;;;10.57;8.88;;;4.70;99.90;;;;;;5069325;28;20047;-68
2023/01/09 05:28:22;;;;;;;11.63;8.77;;;4.70;99.90;;;;;;5069693;28;20472;-69
2023/01/09 05:30:47;;;;;;;12.15;9.13;;;4.60;99.90;;;;;;5069545;28;20048;-66
2023/01/09 05:33:13;;;;;;;12.18;8.82;;;4.60;99.90;;;;;;5069291;28;20043;-67
2023/01/09 05:35:39;;;;;;;12.73;9.68;;;4.60;99.90;;;;;;5069247;28;20067;-67
2023/01/09 05:38:04;;;;;;;12.32;9.40;;;4.60;99.90;;;;;;5069415;28;20102;-67
2023/01/09 05:40:30;;;;;;;11.63;8.65;;;4.60;99.90;;;;;;5069426;28;20067;-68
2023/01/09 05:42:56;;;;;;;14.13;9.93;;;4.60;99.90;;;;;;5069093;28;20032;-67
2023/01/09 05:45:21;;;;;;;12.93;8.55;;;4.50;99.90;;;;;;5068465;28;20037;-69
2023/01/09 05:47:47;;;;;;;15.10;8.52;;;4.50;99.90;;;;;;5065411;28;20115;-68
2023/01/09 05:50:13;;;;;;;11.93;9.27;;;4.50;99.90;;;;;;5066314;28;20048;-68
2023/01/09 05:52:39;;;;;;;12.73;8.68;;;4.50;99.90;;;;;;5083482;28;20048;-67
2023/01/09 05:55:06;;;;;;;14.75;9.10;;;4.50;99.90;;;;;;5066848;28;20033;-67
2023/01/09 05:57:32;;;;;;;13.18;9.45;;;4.50;99.90;;;;;;5069159;28;20051;-67
2023/01/09 05:59:58;;;;;;;14.18;9.15;;;4.60;99.90;;;;;;5065590;28;20048;-66
2023/01/09 06:02:23;;;;;;;10.65;8.52;;;4.60;99.90;;;;;;5067789;28;20458;-68
2023/01/09 06:04:49;;;;;;;12.43;8.15;;;4.60;99.90;;;;;;5066536;28;20032;-66
2023/01/09 06:07:15;;;;;;;12.27;8.07;;;4.60;99.90;;;;;;5063236;28;20036;-67
2023/01/09 06:09:41;;;;;;;9.00;8.07;;;4.60;99.90;;;;;;5058661;28;20082;-66
2023/01/09 06:12:07;;;;;;;10.02;8.15;;;4.60;99.90;;;;;;5064919;28;20045;-65
2023/01/09 06:14:32;;;;;;;14.90;8.05;;;4.60;99.90;;;;;;5065548;28;20795;-65
2023/01/09 06:16:58;;;;;;;13.23;7.53;;;4.60;99.90;;;;;;5066974;28;20047;-69
2023/01/09 06:19:24;;;;;;;11.45;7.30;;;4.60;99.90;;;;;;5065883;28;20043;-65
2023/01/09 06:21:50;;;;;;;12.07;7.30;;;4.60;99.90;;;;;;5068550;28;20399;-66
2023/01/09 06:24:15;;;;;;;15.65;7.05;;;4.60;99.90;;;;;;5062795;28;20042;-65
2023/01/09 06:26:41;;;;;;;11.13;7.10;;;4.60;99.90;;;;;;5068644;28;20037;-66
2023/01/09 06:29:07;;;;;;;11.95;7.13;;;4.60;99.90;;;;;;5067280;28;20040;-65
2023/01/09 06:31:33;;;;;;;12.52;6.75;;;4.60;99.90;;;;;;5066683;28;20050;-64
2023/01/09 06:33:59;;;;;;;11.48;6.05;;;4.60;99.90;;;;;;5067197;28;20056;-67
2023/01/09 06:36:25;;;;;;;9.57;5.60;;;4.70;99.90;;;;;;5067473;28;20101;-66
2023/01/09 06:38:50;;;;;;;8.18;5.28;;;4.60;99.90;;;;;;5064064;28;20707;-68
2023/01/09 06:41:17;;;;;;;8.10;5.40;;;4.70;99.90;;;;;;5065192;28;20048;-66
2023/01/09 06:43:42;;;;;;;8.02;5.32;;;4.70;99.90;;;;;;5067193;28;20032;-67
2023/01/09 06:46:08;;;;;;;9.05;4.95;;;4.70;99.90;;;;;;5046774;28;20052;-65
2023/01/09 06:48:34;;;;;;;7.78;4.75;;;4.80;99.90;;;;;;5067236;28;20403;-67
2023/01/09 06:51:00;;;;;;;7.88;4.50;;;4.80;99.90;;;;;;5049541;28;20124;-66
2023/01/09 06:53:26;;;;;;;9.27;4.57;;;4.90;99.90;;;;;;5066459;28;20536;-66
2023/01/09 06:55:51;;;;;;;9.05;4.70;;;4.90;99.90;;;;;;5064545;28;20083;-63
2023/01/09 06:58:17;;;;;;;9.50;5.07;;;5.00;99.90;;;;;;5064679;28;20059;-67
2023/01/09 07:00:43;;;;;;;11.02;4.97;;;5.00;99.90;;;;;;5065908;28;20055;-65
2023/01/09 07:03:10;;;;;;;11.70;5.13;;;5.00;99.90;;;;;;5067363;28;20470;-66
2023/01/09 07:05:42;;;;;;;8.82;4.47;;;5.10;99.90;;;;;;5061300;28;20029;-65
2023/01/09 07:08:08;;;;;;;8.75;4.85;;;5.10;99.90;;;;;;5065246;28;20036;-65
2023/01/09 07:10:34;;;;;;;8.30;5.05;;;5.10;99.90;;;;;;5068142;28;20044;-67
2023/01/09 07:13:00;;;;;;;7.82;5.00;;;5.10;99.90;;;;;;5067231;28;20037;-68
2023/01/09 07:15:25;;;;;;;7.38;4.65;;;5.20;99.90;;;;;;5066997;28;20531;-67
2023/01/09 07:17:52;;;;;;;10.52;4.82;;;5.20;99.90;;;;;;5066888;28;20526;-66
2023/01/09 07:20:18;;;;;;;7.00;4.47;;;5.20;99.90;;;;;;5064714;28;20041;-67
2023/01/09 07:22:44;;;;;;;8.88;4.85;;;5.20;99.90;;;;;;5067072;28;20045;-67
2023/01/09 07:25:10;;;;;;;9.25;4.82;;;5.20;99.90;;;;;;5063856;28;20090;-66
2023/01/09 07:27:36;;;;;;;8.77;4.80;;;5.20;99.90;;;;;;5062402;28;20425;-66
2023/01/09 07:30:02;;;;;;;7.68;4.60;;;5.20;99.90;;;;;;5067574;28;20623;-65
2023/01/09 07:32:28;;;;;;;7.30;4.60;;;5.20;99.90;;;;;;5070932;28;20067;-65
2023/01/09 07:34:53;;;;;;;7.65;4.30;;;5.20;99.90;;;;;;5053720;28;20087;-64
2023/01/09 07:37:19;;;;;;;9.13;4.28;;;5.20;99.90;;;;;;5068157;28;20040;-69
2023/01/09 07:39:45;;;;;;;8.07;4.68;;;5.20;99.90;;;;;;5065784;28;20094;-65
2023/01/09 07:42:11;;;;;;;6.82;4.53;;;5.20;99.90;;;;;;5066877;28;20515;-67
2023/01/09 07:44:36;;;;;;;5.38;3.85;;;5.20;99.90;;;;;;5071421;28;20091;-66
2023/01/09 07:47:02;;;;;;;8.43;3.92;;;5.30;99.90;;;;;;5069709;28;20132;-67
2023/01/09 07:49:28;;;;;;;9.32;3.95;;;5.30;99.90;;;;;;5068349;28;20057;-65
2023/01/09 07:51:54;;;;;;;11.00;4.00;;;5.30;99.90;;;;;;5069834;28;20054;-67
2023/01/09 07:54:19;;;;;;;7.72;4.25;;;5.30;99.90;;;;;;5069538;28;20144;-67
2023/01/09 07:56:45;;;;;;;6.03;4.15;;;5.30;99.90;;;;;;5067028;28;20491;-67
2023/01/09 07:59:11;;;;;;;6.78;3.83;;;5.30;99.90;;;;;;5069406;28;20040;-65
2023/01/09 08:01:37;;;;;;;7.95;4.13;;;5.30;99.90;;;;;;5069947;28;20044;-65
2023/01/09 08:04:03;;;;;;;10.05;5.15;;;5.30;99.90;;;;;;5068619;28;20131;-66
2023/01/09 08:06:30;;;;;;;10.55;5.43;;;5.40;99.90;;;;;;5071581;28;20033;-67
2023/01/09 08:08:56;;;;;;;7.90;4.38;;;5.40;99.90;;;;;;5067307;28;20044;-66
2023/01/09 08:11:22;;;;;;;6.13;3.55;;;5.40;99.90;;;;;;5064290;28;20391;-66
2023/01/09 08:13:48;;;;;;;8.15;3.45;;;5.40;99.90;;;;;;5051315;28;20064;-67
2023/01/09 08:16:13;;;;;;;7.80;4.10;;;5.40;99.90;;;;;;5067568;28;20471;-67
2023/01/09 08:18:39;;;;;;;8.00;3.70;;;5.40;99.90;;;;;;5070607;28;20470;-66
2023/01/09 08:21:05;;;;;;;7.38;3.42;;;5.40;99.90;;;;;;5068123;28;20531;-65
2023/01/09 08:23:31;;;;;;;6.05;3.53;;;5.50;99.90;;;;;;5067921;28;20071;-66
2023/01/09 08:25:56;;;;;;;7.38;3.50;;;5.50;99.90;;;;;;5068123;28;20041;-67
2023/01/09 08:28:22;;;;;;;6.57;3.15;;;5.50;99.90;;;;;;5072004;28;20048;-66
2023/01/09 08:30:48;;;;;;;9.02;3.10;;;5.50;99.90;;;;;;5070117;28;20513;-66
2023/01/09 08:33:14;;;;;;;7.78;2.83;;;5.50;99.90;;;;;;5070458;28;20105;-66
2023/01/09 08:35:39;;;;;;;8.55;3.22;;;5.50;99.90;;;;;;5071256;28;20036;-67
2023/01/09 08:38:05;;;;;;;8.88;3.25;;;5.60;99.90;;;;;;5069333;28;20036;-65
2023/01/09 08:40:31;;;;;;;7.82;2.63;;;5.60;99.90;;;;;;5070579;28;20036;-66
2023/01/09 08:47:04;;;;;;;8.80;2.47;;;5.70;99.90;;;;;;5069718;28;20094;-66
2023/01/09 08:48:44;;;;;;;5.60;2.75;;;5.70;99.90;;;;;;5067206;28;20495;-67
2023/01/09 08:51:10;;;;;;;4.57;2.60;;;5.70;99.90;;;;;;5053711;28;20056;-64
2023/01/09 08:53:36;;;;;;;6.60;2.85;;;5.70;99.90;;;;;;5068422;28;20045;-66
2023/01/09 08:56:02;;;;;;;6.70;3.25;;;5.80;99.90;;;;;;5048505;28;20044;-66
2023/01/09 08:58:29;;;;;;;7.43;3.05;;;5.80;99.90;;;;;;5060759;28;20044;-65
2023/01/09 09:00:55;;;;;;;6.13;2.80;;;5.80;99.90;;;;;;5068464;28;20056;-66
2023/01/09 09:03:21;;;;;;;9.60;3.00;;;5.90;99.90;;;;;;5068515;28;20098;-67
2023/01/09 09:05:47;;;;;;;6.63;3.50;;;5.90;99.90;;;;;;5069266;28;20417;-66
2023/01/09 09:08:13;;;;;;;7.20;3.45;;;5.90;99.90;;;;;;5068562;28;20040;-66
2023/01/09 09:10:38;;;;;;;10.10;2.70;;;6.00;99.90;;;;;;5048278;28;20062;-66
2023/01/09 09:13:04;;;;;;;9.82;3.20;;;6.00;99.90;;;;;;5069459;28;20048;-67
2023/01/09 09:15:30;;;;;;;5.82;2.65;;;6.00;99.90;;;;;;5071284;28;20514;-66
2023/01/09 09:18:01;;;;;;;8.20;3.28;;;6.00;99.90;;;;;;5068973;28;20115;-67
2023/01/09 09:20:35;;;;;;;7.03;2.75;;;6.10;99.90;;;;;;5086655;28;20036;-66
2023/01/09 09:23:01;;;;;;;6.22;2.72;;;6.10;99.90;;;;;;5067979;28;20062;-65
2023/01/09 09:25:27;;;;;;;8.82;2.60;;;6.10;99.90;;;;;;5069820;28;20877;-66
2023/01/09 09:27:55;;;;;;;6.22;2.60;;;6.20;99.90;;;;;;5069777;28;20115;-66
2023/01/09 09:30:21;;;;;;;10.27;2.80;;;6.20;99.90;;;;;;5051731;28;20044;-64
2023/01/09 09:32:48;;;;;;;9.90;2.80;;;6.20;99.90;;;;;;5069718;28;20467;-66
2023/01/09 09:35:16;;;;;;;11.30;2.85;;;6.20;99.90;;;;;;5069791;28;20076;-66
2023/01/09 09:37:51;;;;;;;10.38;2.80;;;6.20;99.90;;;;;;5069367;28;20044;-66
2023/01/09 09:40:21;;;;;;;6.18;2.42;;;6.20;99.90;;;;;;5069696;28;20047;-66
2023/01/09 09:46:19;;;;;;;5.15;2.67;;;6.20;99.90;;;;;;5062847;28;22314;-66
2023/01/09 09:48:56;;;;;;;8.88;2.75;;;6.20;99.90;;;;;;5063854;28;20090;-65
2023/01/09 09:51:21;;;;;;;9.18;2.75;;;6.30;99.90;;;;;;5067927;28;20044;-66
2023/01/09 09:53:58;;;;;;;9.25;2.78;;;6.30;99.90;;;;;;5067628;28;20043;-66
2023/01/09 09:56:26;;;;;;;9.02;2.97;;;6.30;99.90;;;;;;5070293;28;20043;-67
2023/01/09 09:59:14;;;;;;;8.30;3.00;;;6.30;99.90;;;;;;5066613;28;20041;-67
2023/01/09 10:01:45;;;;;;;7.03;2.80;;;6.30;99.90;;;;;;5066738;28;20074;-65
2023/01/09 10:04:15;;;;;;;5.28;2.42;;;6.30;99.90;;;;;;5067773;28;20051;-66
2023/01/09 10:07:00;;;;;;;8.07;2.88;;;6.30;99.90;;;;;;5050585;28;20102;-65
2023/01/09 10:09:28;;;;;;;4.93;2.50;;;6.40;99.90;;;;;;5066594;28;20040;-63
2023/01/09 10:12:06;;;;;;;8.77;2.80;;;6.30;99.90;;;;;;5064461;28;20047;-62
2023/01/09 10:14:31;;;;;;;6.43;2.65;;;6.40;99.90;;;;;;5064993;28;20075;-64
2023/01/09 10:17:16;;;;;;;7.20;2.67;;;6.40;99.90;;;;;;5067529;28;20148;-65
2023/01/09 10:19:59;;;;;;;6.93;2.47;;;6.50;99.90;;;;;;5050810;28;20040;-64
2023/01/09 10:22:43;;;;;;;7.60;2.65;;;6.50;99.90;;;;;;5066633;28;20127;-64
2023/01/09 10:25:21;;;;;;;6.13;3.15;;;6.50;99.90;;;;;;5067863;28;20044;-65
2023/01/09 10:28:12;;;;;;;8.32;2.90;;;6.50;99.90;;;;;;5068123;28;20044;-64
2023/01/09 10:31:11;;;;;;;5.97;2.85;;;6.50;99.90;;;;;;5066545;28;20049;-67
2023/01/09 10:33:55;;;;;;;5.78;2.90;;;6.60;99.90;;;;;;5066368;28;20467;-66
2023/01/09 10:36:35;;;;;;;6.32;3.17;;;6.60;99.90;;;;;;5066670;28;20088;-64
2023/01/09 10:39:06;;;;;;;5.68;2.88;;;6.70;99.90;;;;;;5066069;28;20128;-64
2023/01/09 10:41:38;;;;;;;6.15;2.78;;;6.70;99.90;;;;;;5065028;28;20037;-65
2023/01/09 10:44:36;;;;;;;7.90;2.85;;;6.70;99.90;;;;;;5066904;28;20045;-66
2023/01/09 10:47:09;;;;;;;5.88;3.22;;;6.70;99.90;;;;;;5065878;28;20438;-64
2023/01/09 10:49:37;;;;;;;7.00;3.00;;;6.70;99.90;;;;;;5067477;28;20045;-65
2023/01/09 10:52:15;;;;;;;8.55;3.30;;;6.70;99.90;;;;;;5068349;28;20040;-66
2023/01/09 10:54:51;;;;;;;7.15;3.40;;;6.70;99.90;;;;;;5066584;28;20040;-65
2023/01/09 10:57:23;;;;;;;7.60;3.22;;;6.70;99.90;;;;;;5063358;28;20407;-66
2023/01/09 10:59:49;;;;;;;5.95;3.85;;;6.70;99.90;;;;;;5066433;28;20622;-66
2023/01/09 11:02:28;;;;;;;11.82;4.05;;;6.70;99.90;;;;;;5072269;28;20120;-67
2023/01/09 11:04:53;;;;;;;7.15;3.60;;;6.70;99.90;;;;;;5069917;28;20036;-67
2023/01/09 11:07:22;;;;;;;9.18;4.10;;;6.70;99.90;;;;;;5071972;28;20390;-68
2023/01/09 11:09:59;;;;;;;10.07;5.22;;;6.60;99.90;;;;;;5056332;28;20504;-65
2023/01/09 11:12:30;;;;;;;6.25;4.45;;;6.70;99.90;;;;;;5072212;28;20083;-66
2023/01/09 11:15:15;;;;;;;9.88;5.20;;;6.60;99.90;;;;;;5072197;28;20052;-68
2023/01/09 11:17:42;;;;;;;9.27;5.32;;;6.60;99.90;;;;;;5055640;28;20053;-63
2023/01/09 11:20:15;;;;;;;8.32;5.40;;;6.60;99.90;;;;;;5072079;28;20041;-64
2023/01/09 11:22:42;;;;;;;;;;;6.60;99.90;;;;;;5071057;28;20115;-64
2023/01/09 11:25:11;;;;;;;12.18;6.50;;;6.60;99.90;;;;;;5071139;28;20370;-66
2023/01/09 11:27:37;;;;;;;10.35;6.70;;;6.60;99.90;;;;;;5071316;28;20051;-67
2023/01/09 11:30:19;;;;;;;12.50;7.00;;;6.60;99.90;;;;;;5071830;28;20044;-65
2023/01/09 11:32:45;;;;;;;11.27;7.72;;;6.60;99.90;;;;;;5084756;28;20033;-65
2023/01/09 11:35:32;;;;;;;14.80;7.97;;;6.70;99.90;;;;;;5071459;28;20043;-67
2023/01/09 11:38:14;;;;;;;13.50;7.85;;;6.70;99.90;;;;;;5071041;28;20090;-67
2023/01/09 11:40:46;;;;;;;14.73;7.95;;;6.70;99.90;;;;;;5069072;28;20082;-65
2023/01/09 11:43:16;;;;;;;16.27;8.23;;;6.80;99.90;;;;;;5069495;28;20040;-69
2023/01/09 11:45:55;;;;;;;13.45;8.20;;;6.80;99.90;;;;;;5071088;28;20037;-67
2023/01/09 11:48:31;;;;;;;12.05;8.55;;;6.80;99.90;;;;;;5052773;28;20036;-65
2023/01/09 11:50:59;;;;;;;17.85;9.15;;;6.90;99.90;;;;;;5053764;28;20036;-65
2023/01/09 11:53:25;;;;;;;16.63;9.27;;;6.90;99.90;;;;;;5071009;28;20514;-67
2023/01/09 11:56:00;;;;;;;14.77;10.18;;;6.90;99.90;;;;;;5068841;28;20091;-67
2023/01/09 11:58:30;;;;;;;13.82;9.15;;;7.00;99.90;;;;;;5048506;28;20060;-66
2023/01/09 12:01:37;;;;;;;15.90;9.50;;;7.00;99.90;;;;;;5051567;28;20048;-67
2023/01/09 12:04:27;;;;;;;15.38;9.18;;;7.00;99.90;;;;;;5069102;28;20394;-63
2023/01/09 12:07:14;;;;;;;15.27;9.48;;;7.00;99.90;;;;;;5070517;28;20410;-67
2023/01/09 12:10:02;;;;;;;13.90;8.65;;;7.00;99.90;;;;;;5067471;28;20055;-69
2023/01/09 12:12:52;;;;;;;14.75;9.85;;;7.00;99.90;;;;;;5070054;28;20044;-63
2023/01/09 12:15:37;;;;;;;15.80;9.88;;;7.00;99.90;;;;;;5069729;28;20040;-68
2023/01/09 12:18:41;;;;;;;14.23;8.75;;;7.00;99.90;;;;;;5070434;28;20119;-66
2023/01/09 12:21:32;;;;;;;13.10;8.95;;;7.10;99.90;;;;;;5071725;28;20051;-69
2023/01/09 12:24:17;;;;;;;16.13;9.82;;;7.10;99.90;;;;;;5028412;28;20057;-68
2023/01/09 12:27:00;;;;;;;15.15;9.30;;;7.10;99.90;;;;;;5012017;28;20076;-68
2023/01/09 12:29:39;;;;;;;17.88;8.88;;;7.20;99.90;;;;;;5012181;28;20381;-67
2023/01/09 12:32:16;;;;;;;15.07;9.23;;;7.30;99.90;;;;;;5010806;28;20037;-64
2023/01/09 12:34:50;;;;;;;13.88;9.43;;;7.30;99.90;;;;;;5013241;28;20092;-67
2023/01/09 12:37:40;;;;;;;11.23;8.88;;;7.30;99.90;;;;;;5011166;28;20045;-66
2023/01/09 12:40:14;;;;;;;13.07;9.07;;;7.30;99.90;;;;;;5008717;28;20457;-66
2023/01/09 12:43:10;;;;;;;14.63;8.23;;;7.30;99.90;;;;;;5013195;28;20060;-66
2023/01/09 12:45:41;;;;;;;11.07;8.10;;;7.30;99.90;;;;;;5010286;28;21724;-64
2023/01/09 12:48:41;;;;;;;12.00;8.30;;;7.30;99.90;;;;;;4995634;28;20076;-64
2023/01/09 12:51:21;;;;;;;11.32;7.68;;;7.30;99.90;;;;;;4996033;28;20135;-66
2023/01/09 12:53:54;;;;;;;10.32;7.82;;;7.30;99.90;;;;;;5010562;28;20456;-69
2023/01/09 12:56:28;;;;;;;14.55;8.20;;;7.30;99.90;;;;;;5012506;28;20041;-64
2023/01/09 12:59:00;;;;;;;14.30;8.23;;;7.20;99.90;;;;;;5012616;28;20042;-67
2023/01/09 13:01:35;;;;;;;14.95;7.97;;;7.20;99.90;;;;;;5050471;28;20052;-66
2023/01/09 13:04:14;;;;;;;14.00;8.18;;;7.20;99.90;;;;;;5053524;28;20051;-68
2023/01/09 13:06:44;;;;;;;15.30;7.95;;;7.20;99.90;;;;;;5070095;28;20091;-67
2023/01/09 13:09:18;;;;;;;12.55;8.25;;;7.20;99.90;;;;;;5069838;28;20048;-67
2023/01/09 13:11:58;;;;;;;14.13;8.45;;;7.30;99.90;;;;;;5069561;28;20060;-67
2023/01/09 13:14:36;;;;;;;17.20;8.57;;;7.20;99.90;;;;;;5067367;28;20537;-65
2023/01/09 13:17:02;;;;;;;11.63;7.35;;;7.30;99.90;;;;;;5069694;28;20036;-66
2023/01/09 13:19:38;;;;;;;11.88;7.28;;;7.30;99.90;;;;;;5069683;28;20049;-66
2023/01/09 13:22:06;;;;;;;12.90;7.47;;;7.30;99.90;;;;;;5070016;28;20032;-67